KCCA/CCA METAR and TAF weather

Enter ICAO airport designator
Station Type Date Time Source
KCCA METAR 2022/06/26 07:15 UTC NOAA

KCCA 260715Z AUTO 00000KT 10SM CLR 24/23 A3002 RMK AO2


Station Type Date Time Source
KCCA Decoded METAR 2022/06/26 07:15 UTC NOAA

Station name not available
Jun 26, 2022 - 03:15 AM EDT / 2022.06.26 0715 UTC
Wind: Calm:0
Visibility: 10 mile(s):0
Sky conditions: clear
Temperature: 75 F (24 C)
Dew Point: 73 F (23 C)
Relative Humidity: 94%
Pressure (altimeter): 30.02 in. Hg (1016 hPa)
ob: KCCA 260715Z AUTO 00000KT 10SM CLR 24/23 A3002 RMK AO2
cycle: 7

Station Type Date Time Source
KCCA TAF UTC NOAA

Error!

Example: see airport list